Halifax, MA

6:41 AM EDT on August 30, 2015 (GMT -0400)
Town of Halifax EMA | | Change Station
CLOSE
Current Station
Personal Weather Station
Location: Halifax, MA
Elevation: 102 ft
Nearby Weather Stations

Elev 102 ft 41.99 °N, 70.86 °W | Updated 10 minutes ago

Partly Cloudy
Partly Cloudy
62.8 °F
Feels Like 62.8 °F
N
0.0
Wind Variable Wind from South

Today
High -- | Low -- °F
--% Chance of Precip.
Yesterday
High -- | Low -- °F
Precip. -- in
6:06 AM 7:20 PM
Full, 99% visible
Pressure 30.08 in
Visibility 9.0 miles
Clouds Scattered Clouds 7000 ft
Dew Point 62 °F
Humidity 96%
Rainfall 0.00 in
Snow Depth Not available.
UV 0 out of 12
Pollen 10.30 out of 12
Air Quality Not available.
Flu Activity Not available.
METAR KPYM 300952Z AUTO 00000KT 9SM SCT070 17/16 A3008 RMK AO2 SLP185 T01670161
Pressure 30.08 in
Visibility 9.0 miles
Clouds Scattered Clouds 7000 ft
Dew Point 62 °F
Humidity 96%
Rainfall 0.00 in
Snow Depth Not available.
UV 0 out of 12
Pollen 10.30 out of 12
Air Quality Not available.
Flu Activity Not available.
METAR KPYM 300952Z AUTO 00000KT 9SM SCT070 17/16 A3008 RMK AO2 SLP185 T01670161

10-Day Weather Forecast

×

Almanac

Astronomy

Aug. 30, 2015 Rise Set
Actual Time
Civil Twilight
Nautical Twilight
Astronomical Twilight
Moon
Length of Visible Light
Length of Day
Tomorrow will be .
, % of the Moon is Illuminated

Today's Extremes

State Highs State Lows

Community

WunderPhotos

Upload Photos

1,850,925 photos uploaded!

WunderBlogs® & News

Nearby

Air Quality

  Air Quality AQ Index Pollutant
Not available.

Snow Depth

Station Depth Elevation

Earthquake Activity

City Distance Mag. Time & Date
Minimum magnitude displayed is 2.5.

Coastal Water Temperatures

Place Temperature

Stations

Nearby Weather Stations

Station Location Temp. Windchill Dew Point Humidity Wind Precip. Elev Updated Type